Time;durP1;ratioP1;P1;durP2;ratioP2;P2;SDS_P1;SDS_P2;PMS_P1;PMS_P2;Temp;Humidity;BMP_temperature;BMP_pressure;BME280_temperature;BME280_humidity;BME280_pressure;Samples;Min_cycle;Max_cycle;Signal;HPM_P1;HPM_P2
2023/05/01 00:01:44;;;;;;;13.10;11.70;;;;;;;2.09;61.77;98385.58;106429;1278;22673;-76
2023/05/01 00:04:12;;;;;;;14.20;12.70;;;;;;;2.02;61.52;98386.11;106547;1278;22674;-77
2023/05/01 00:06:41;;;;;;;15.40;13.90;;;;;;;1.98;61.97;98388.09;106520;1278;25366;-76
2023/05/01 00:09:09;;;;;;;15.00;13.20;;;;;;;1.93;61.53;98390.04;106539;1278;23039;-75
2023/05/01 00:11:37;;;;;;;15.00;13.00;;;;;;;1.87;61.34;98391.61;106549;1278;22545;-75
2023/05/01 00:14:05;;;;;;;13.50;12.10;;;;;;;1.83;61.25;98387.95;106519;1278;24284;-75
2023/05/01 00:16:34;;;;;;;16.50;14.00;;;;;;;1.76;61.22;98385.03;106550;1278;25403;-76
2023/05/01 00:19:03;;;;;;;18.40;15.00;;;;;;;1.73;60.90;98389.95;106592;1278;26524;-75
2023/05/01 00:21:31;;;;;;;15.40;11.60;;;;;;;1.74;60.98;98387.80;106529;1278;25334;-75
2023/05/01 00:23:59;;;;;;;15.90;10.00;;;;;;;1.79;61.11;98382.78;106574;1278;24529;-75
2023/05/01 00:26:30;;;;;;;13.90;12.10;;;;;;;1.85;61.18;98385.59;106484;1278;22532;-76
2023/05/01 00:28:58;;;;;;;13.20;11.10;;;;;;;1.89;62.02;98386.49;106397;1278;24249;-77
2023/05/01 00:31:26;;;;;;;12.90;9.90;;;;;;;1.86;64.88;98386.06;106380;1278;22958;-74
2023/05/01 00:33:54;;;;;;;12.70;9.60;;;;;;;1.79;66.54;98384.79;106367;1278;22609;-75
2023/05/01 00:36:23;;;;;;;12.50;10.80;;;;;;;1.72;65.15;98385.52;106386;1278;23858;-75
2023/05/01 00:38:51;;;;;;;16.10;14.00;;;;;;;1.70;64.07;98380.36;106348;1278;22544;-75
2023/05/01 00:41:20;;;;;;;14.00;12.50;;;;;;;1.67;63.71;98378.66;106358;1278;24259;-75
2023/05/01 00:43:48;;;;;;;22.50;20.50;;;;;;;1.61;63.69;98378.62;106628;1276;22930;-75
2023/05/01 00:46:17;;;;;;;15.40;13.60;;;;;;;1.54;64.20;98376.52;106801;1276;22544;-78
2023/05/01 00:48:45;;;;;;;16.30;12.40;;;;;;;1.47;64.47;98376.83;106737;1276;24340;-75
2023/05/01 00:51:14;;;;;;;17.60;15.40;;;;;;;1.48;64.51;98380.95;106754;1276;24229;-75
2023/05/01 00:53:42;;;;;;;39.00;35.10;;;;;;;1.43;65.06;98381.10;106757;1276;25240;-74
2023/05/01 00:56:10;;;;;;;23.50;21.20;;;;;;;1.40;64.83;98379.31;106607;1276;22644;-74
2023/05/01 00:58:39;;;;;;;28.30;25.70;;;;;;;1.36;64.99;98381.46;106724;1276;24843;-74
2023/05/01 01:01:08;;;;;;;16.00;14.40;;;;;;;1.28;65.53;98382.05;106707;1276;22524;-75
2023/05/01 01:03:37;;;;;;;19.70;17.80;;;;;;;1.20;66.39;98380.67;106644;1276;24267;-75
2023/05/01 01:06:19;;;;;;;14.30;11.80;;;;;;;1.13;66.50;98384.41;106484;1276;25303;-75
2023/05/01 01:09:07;;;;;;;20.40;18.40;;;;;;;1.05;67.11;98388.05;106735;1276;25392;-75
2023/05/01 01:11:45;;;;;;;12.70;11.00;;;;;;;1.03;67.07;98389.93;106791;1276;22513;-75
2023/05/01 01:14:27;;;;;;;13.00;10.90;;;;;;;1.03;67.49;98392.66;106733;1276;22533;-75
2023/05/01 01:17:03;;;;;;;10.80;9.40;;;;;;;1.03;69.09;98388.62;106625;1276;24382;-75
2023/05/01 01:19:56;;;;;;;39.10;36.20;;;;;;;1.04;70.67;98385.34;106775;1276;22528;-75
2023/05/01 01:22:26;;;;;;;16.70;15.10;;;;;;;1.03;70.18;98381.88;106716;1276;22592;-75
2023/05/01 01:25:09;;;;;;;22.00;19.90;;;;;;;1.01;70.67;98386.15;106769;1276;22644;-75
2023/05/01 01:28:22;;;;;;;14.30;12.20;;;;;;;0.96;69.45;98384.59;106731;1276;25329;-75
2023/05/01 01:31:08;;;;;;;15.50;13.20;;;;;;;0.94;69.75;98382.58;106611;1276;22783;-75
2023/05/01 01:34:11;;;;;;;14.30;12.90;;;;;;;0.93;70.14;98382.54;106699;1276;22569;-75
2023/05/01 01:36:54;;;;;;;11.40;10.30;;;;;;;0.91;70.68;98380.98;106599;1276;24063;-75
2023/05/01 01:39:28;;;;;;;13.20;11.90;;;;;;;0.87;71.12;98376.90;106740;1276;24276;-75
2023/05/01 01:41:58;;;;;;;26.90;24.30;;;;;;;0.84;70.15;98381.36;106527;1276;22753;-76
2023/05/01 01:44:36;;;;;;;32.60;29.60;;;;;;;0.80;69.76;98375.84;106744;1276;22527;-73
2023/05/01 01:47:09;;;;;;;34.50;31.40;;;;;;;0.76;70.16;98382.14;106703;1275;22628;-76
2023/05/01 01:49:43;;;;;;;11.40;10.20;;;;;;;0.69;69.98;98381.33;106781;1276;22589;-74
2023/05/01 01:52:14;;;;;;;11.80;10.50;;;;;;;0.65;70.75;98376.27;106724;1276;25344;-77
2023/05/01 01:54:53;;;;;;;23.70;21.40;;;;;;;0.63;70.99;98377.08;106815;1276;24075;-74
2023/05/01 01:57:23;;;;;;;15.60;13.60;;;;;;;0.63;70.43;98376.60;106537;1276;22693;-74
2023/05/01 01:59:54;;;;;;;31.80;28.40;;;;;;;0.66;70.25;98372.64;106824;1276;25639;-75
2023/05/01 02:02:25;;;;;;;145.30;85.60;;;;;;;0.71;69.87;98372.14;106632;1276;22574;-74
2023/05/01 02:04:56;;;;;;;166.30;95.40;;;;;;;0.79;70.02;98370.29;106609;1276;25306;-74
2023/05/01 02:07:27;;;;;;;112.20;72.70;;;;;;;0.85;69.94;98367.02;106642;1276;23361;-74
2023/05/01 02:09:57;;;;;;;83.40;64.20;;;;;;;0.89;69.62;98360.17;106626;1276;26548;-74
2023/05/01 02:12:27;;;;;;;54.80;47.80;;;;;;;0.88;69.53;98360.89;106755;1276;22572;-74
2023/05/01 02:14:57;;;;;;;86.00;60.70;;;;;;;0.85;70.27;98356.73;106737;1276;25392;-74
2023/05/01 02:17:27;;;;;;;93.60;65.30;;;;;;;0.81;70.65;98354.14;106643;1276;22744;-74
2023/05/01 02:19:57;;;;;;;68.80;61.40;;;;;;;0.80;71.36;98352.34;106661;1276;22528;-74
2023/05/01 02:22:26;;;;;;;58.50;52.20;;;;;;;0.80;71.26;98348.89;106590;1276;23074;-74
2023/05/01 02:24:58;;;;;;;43.20;38.10;;;;;;;0.76;71.79;98347.34;106776;1276;23145;-74
2023/05/01 02:27:32;;;;;;;62.00;55.50;;;;;;;0.75;71.50;98343.72;106756;1276;22505;-74
2023/05/01 02:30:00;;;;;;;46.40;41.20;;;;;;;0.74;71.97;98344.47;106685;1276;22761;-75
2023/05/01 02:32:30;;;;;;;33.40;28.80;;;;;;;0.66;71.93;98341.63;106753;1276;22930;-75
2023/05/01 02:34:59;;;;;;;26.00;23.30;;;;;;;0.59;72.73;98337.88;106539;1267;24213;-76
2023/05/01 02:37:29;;;;;;;30.70;27.40;;;;;;;0.50;73.02;98339.05;106769;1276;24334;-75
2023/05/01 02:39:58;;;;;;;23.60;20.80;;;;;;;0.43;73.28;98333.30;106721;1276;22784;-74
2023/05/01 02:42:28;;;;;;;20.10;17.90;;;;;;;0.47;73.20;98334.45;106725;1276;24182;-76
2023/05/01 02:44:58;;;;;;;111.70;102.40;;;;;;;0.54;72.76;98331.95;106590;1276;24182;-76
2023/05/01 02:47:29;;;;;;;24.90;22.60;;;;;;;0.64;73.23;98325.38;106710;1276;25323;-74
2023/05/01 02:49:59;;;;;;;28.00;25.40;;;;;;;0.69;72.91;98324.66;106713;1276;22810;-76
2023/05/01 02:52:28;;;;;;;26.90;24.10;;;;;;;0.74;72.78;98325.98;106743;1276;24252;-76
2023/05/01 02:55:04;;;;;;;22.60;20.30;;;;;;;0.84;72.51;98323.44;106711;1276;22629;-76
2023/05/01 02:57:33;;;;;;;16.30;14.50;;;;;;;0.99;72.39;98320.49;106580;1276;25517;-76
2023/05/01 03:00:01;;;;;;;14.60;12.40;;;;;;;1.13;72.20;98321.09;106921;1276;23275;-75
2023/05/01 03:02:29;;;;;;;12.50;11.20;;;;;;;1.28;72.24;98324.27;106526;1276;25382;-74
2023/05/01 03:04:57;;;;;;;15.80;12.00;;;;;;;1.40;72.23;98323.18;106592;1276;25542;-74
2023/05/01 03:07:25;;;;;;;12.20;10.50;;;;;;;1.50;72.06;98326.86;106506;1276;25686;-74
2023/05/01 03:09:53;;;;;;;13.90;9.80;;;;;;;1.52;71.68;98324.95;106731;1276;25412;-75
2023/05/01 03:12:22;;;;;;;13.60;10.80;;;;;;;1.49;71.88;98327.70;106760;1276;22517;-76
2023/05/01 03:14:50;;;;;;;13.00;9.10;;;;;;;1.40;72.28;98327.76;106643;1276;24362;-76
2023/05/01 03:17:18;;;;;;;12.60;8.60;;;;;;;1.33;72.46;98325.66;106613;1276;24237;-74
2023/05/01 03:19:47;;;;;;;11.50;9.10;;;;;;;1.28;72.77;98321.29;106778;1276;25550;-75
2023/05/01 03:22:16;;;;;;;14.10;9.10;;;;;;;1.21;72.80;98316.05;106809;1276;22528;-76
2023/05/01 03:24:46;;;;;;;14.50;9.80;;;;;;;1.19;72.45;98316.89;106808;1276;25465;-75
2023/05/01 03:27:14;;;;;;;11.00;9.40;;;;;;;1.20;72.51;98316.64;106585;1276;24385;-74
2023/05/01 03:29:42;;;;;;;11.40;9.90;;;;;;;1.20;72.63;98316.01;106583;1276;22528;-75
2023/05/01 03:32:10;;;;;;;11.50;9.60;;;;;;;1.15;73.17;98313.77;106840;1276;24343;-76
2023/05/01 03:34:38;;;;;;;13.30;10.40;;;;;;;1.11;73.04;98313.02;106541;1275;22784;-74
2023/05/01 03:37:07;;;;;;;21.20;19.20;;;;;;;1.07;72.95;98315.67;106840;1254;24359;-75
2023/05/01 03:39:35;;;;;;;14.90;13.10;;;;;;;1.06;72.95;98312.75;106746;1276;24686;-74
2023/05/01 03:42:26;;;;;;;15.50;11.10;;;;;;;1.13;72.97;98309.67;106429;1276;24368;-75
2023/05/01 03:45:00;;;;;;;12.50;11.20;;;;;;;1.23;72.90;98310.79;106786;1276;22531;-75
2023/05/01 03:47:28;;;;;;;11.70;9.30;;;;;;;1.34;72.86;98308.23;106734;1276;25550;-75
2023/05/01 03:49:57;;;;;;;13.10;9.80;;;;;;;1.42;73.42;98308.95;106844;1276;22531;-75
2023/05/01 03:52:25;;;;;;;12.00;10.20;;;;;;;1.40;73.77;98308.42;106817;1276;22773;-75
2023/05/01 03:54:55;;;;;;;12.40;10.00;;;;;;;1.42;73.37;98308.40;106816;1276;25131;-74
2023/05/01 03:57:32;;;;;;;13.40;11.70;;;;;;;1.47;73.43;98313.79;106819;1276;22534;-75
2023/05/01 04:00:02;;;;;;;17.80;16.00;;;;;;;1.53;73.33;98313.73;106788;1276;24268;-75
2023/05/01 04:02:31;;;;;;;23.30;21.10;;;;;;;1.60;73.17;98309.52;106876;1276;22666;-76
2023/05/01 04:04:59;;;;;;;23.50;21.10;;;;;;;1.69;73.11;98309.52;106918;1276;25396;-74
2023/05/01 04:07:29;;;;;;;15.40;12.70;;;;;;;1.79;72.98;98309.33;106845;1276;22774;-76
2023/05/01 04:09:57;;;;;;;17.50;12.40;;;;;;;1.87;73.21;98303.70;106517;1276;22511;-75
2023/05/01 04:12:25;;;;;;;11.70;10.50;;;;;;;1.92;73.62;98301.58;106753;1276;22627;-75
2023/05/01 04:14:53;;;;;;;11.60;10.10;;;;;;;1.87;74.04;98299.61;106847;1276;22525;-75
2023/05/01 04:17:22;;;;;;;13.70;10.50;;;;;;;1.85;73.82;98299.89;106895;1276;24432;-76
2023/05/01 04:19:51;;;;;;;13.20;11.00;;;;;;;1.88;74.45;98300.73;106971;1276;25781;-75
2023/05/01 04:22:20;;;;;;;15.00;11.20;;;;;;;1.90;74.37;98300.05;106655;1276;24399;-77
2023/05/01 04:24:48;;;;;;;12.10;10.00;;;;;;;1.93;74.69;98299.05;106835;1276;25332;-78
2023/05/01 04:27:18;;;;;;;12.60;9.70;;;;;;;2.01;74.74;98294.38;106811;1276;22532;-75
2023/05/01 04:29:46;;;;;;;11.60;9.10;;;;;;;2.12;74.93;98292.91;106483;1276;24374;-76
2023/05/01 04:32:18;;;;;;;11.80;8.90;;;;;;;2.23;74.97;98291.98;106798;1276;22521;-74
2023/05/01 04:34:46;;;;;;;12.80;10.20;;;;;;;2.35;75.34;98300.73;106503;1276;22627;-74
2023/05/01 04:37:17;;;;;;;15.60;12.20;;;;;;;2.46;75.57;98296.80;106744;1276;22584;-75
2023/05/01 04:39:45;;;;;;;14.20;12.70;;;;;;;2.64;75.63;98297.94;106815;1276;22537;-76
2023/05/01 04:42:13;;;;;;;14.20;12.20;;;;;;;2.85;75.56;98291.35;106508;1276;24049;-76
2023/05/01 04:44:42;;;;;;;13.70;11.60;;;;;;;3.06;75.58;98291.40;106770;1276;25469;-75
2023/05/01 04:47:11;;;;;;;10.90;9.00;;;;;;;3.25;75.38;98285.48;106792;1276;22784;-77
2023/05/01 04:49:39;;;;;;;12.00;10.20;;;;;;;3.44;75.23;98290.05;106740;1276;22671;-77
2023/05/01 04:52:07;;;;;;;12.60;9.30;;;;;;;3.64;74.94;98290.88;106806;1267;25592;-76
2023/05/01 04:54:48;;;;;;;10.80;8.90;;;;;;;3.86;75.14;98290.99;106932;1276;22526;-78
2023/05/01 04:57:17;;;;;;;11.40;8.40;;;;;;;4.10;74.75;98291.90;106826;1276;25417;-75
2023/05/01 04:59:46;;;;;;;12.90;7.90;;;;;;;4.34;74.73;98291.46;106541;1276;25310;-77
2023/05/01 05:02:14;;;;;;;11.90;7.90;;;;;;;4.59;75.04;98290.05;106582;1276;22623;-77
2023/05/01 05:04:42;;;;;;;12.90;8.90;;;;;;;4.86;74.59;98290.27;106590;1276;22518;-76
2023/05/01 05:07:10;;;;;;;12.00;9.00;;;;;;;5.09;74.09;98291.34;106508;1276;25493;-76
2023/05/01 05:10:01;;;;;;;11.60;8.50;;;;;;;5.34;73.37;98287.13;106953;1276;24193;-76
2023/05/01 05:12:29;;;;;;;11.30;8.80;;;;;;;5.57;72.97;98289.66;106802;1276;22628;-76
2023/05/01 05:14:57;;;;;;;11.40;8.10;;;;;;;5.76;72.75;98288.12;106739;1276;22633;-75
2023/05/01 05:17:28;;;;;;;10.40;8.60;;;;;;;5.94;72.60;98286.23;106709;1276;22797;-76
2023/05/01 05:19:56;;;;;;;13.00;8.10;;;;;;;6.11;72.14;98283.33;106595;1276;22532;-76
2023/05/01 05:22:25;;;;;;;13.40;8.30;;;;;;;6.27;71.59;98281.59;106732;1276;25428;-76
2023/05/01 05:25:13;;;;;;;13.90;8.50;;;;;;;6.43;71.05;98283.25;106959;1276;25392;-76
2023/05/01 05:27:41;;;;;;;12.70;9.50;;;;;;;6.56;70.89;98284.97;106486;1276;22473;-76
2023/05/01 05:30:09;;;;;;;12.10;8.40;;;;;;;6.70;70.57;98281.19;106531;1276;25601;-76
2023/05/01 05:32:37;;;;;;;11.20;8.70;;;;;;;6.84;70.12;98281.23;106725;1276;24302;-76
2023/05/01 05:35:06;;;;;;;12.70;9.70;;;;;;;6.96;69.51;98282.88;106541;1276;22519;-76
2023/05/01 05:37:34;;;;;;;12.40;8.50;;;;;;;7.08;68.55;98281.23;106761;1276;23887;-76
2023/05/01 05:40:02;;;;;;;10.70;8.10;;;;;;;7.20;68.42;98286.48;106469;1276;25439;-76
2023/05/01 05:42:34;;;;;;;9.70;8.30;;;;;;;7.32;68.06;98288.38;106883;1276;22644;-76
2023/05/01 05:45:06;;;;;;;10.90;7.70;;;;;;;7.43;67.89;98286.55;106760;1276;22531;-76
2023/05/01 05:47:34;;;;;;;11.00;8.70;;;;;;;7.57;67.09;98286.48;106493;1276;22637;-75
2023/05/01 05:50:03;;;;;;;11.20;8.20;;;;;;;7.67;66.65;98286.37;106393;1276;182535;-75
2023/05/01 05:52:32;;;;;;;11.40;9.10;;;;;;;7.78;65.86;98284.70;106727;1276;23155;-75
2023/05/01 05:55:02;;;;;;;12.80;8.70;;;;;;;7.89;65.50;98286.23;106819;1276;22513;-75
2023/05/01 05:57:30;;;;;;;14.10;9.70;;;;;;;7.97;65.38;98289.70;106567;1276;25463;-76
2023/05/01 05:59:59;;;;;;;12.70;9.10;;;;;;;8.08;64.98;98291.71;106718;1276;22513;-75
2023/05/01 06:02:27;;;;;;;12.50;9.00;;;;;;;8.19;64.66;98290.73;106768;1276;22610;-75
2023/05/01 06:04:56;;;;;;;10.70;9.00;;;;;;;8.30;64.31;98293.69;106593;1276;22525;-75
2023/05/01 06:07:27;;;;;;;15.60;8.90;;;;;;;8.41;64.49;98288.04;106511;1276;25361;-75
2023/05/01 06:10:01;;;;;;;13.00;10.30;;;;;;;8.53;64.23;98288.48;106757;1276;25310;-75
2023/05/01 06:12:30;;;;;;;12.90;9.20;;;;;;;8.67;64.44;98286.70;106468;1276;25262;-75
2023/05/01 06:14:59;;;;;;;14.00;8.80;;;;;;;8.77;63.58;98290.83;106557;1276;22541;-75
2023/05/01 06:17:28;;;;;;;13.70;9.00;;;;;;;8.89;63.90;98293.13;106502;1276;23026;-77
2023/05/01 06:19:56;;;;;;;14.10;8.90;;;;;;;9.00;62.45;98293.43;106755;1276;24208;-75
2023/05/01 06:22:25;;;;;;;13.40;8.90;;;;;;;9.10;61.77;98299.14;106826;1276;22680;-76
2023/05/01 06:25:03;;;;;;;10.60;8.40;;;;;;;9.17;61.82;98296.81;106933;1276;22647;-75
2023/05/01 06:27:31;;;;;;;11.60;8.60;;;;;;;9.26;61.78;98296.43;106517;1276;22760;-75
2023/05/01 06:30:00;;;;;;;13.80;8.60;;;;;;;9.33;60.61;98294.61;106749;1276;22639;-76
2023/05/01 06:32:28;;;;;;;10.70;8.20;;;;;;;9.44;61.08;98295.07;106769;1276;22515;-76
2023/05/01 06:34:55;;;;;;;12.80;8.30;;;;;;;9.57;61.63;98297.98;106757;1276;22535;-77
2023/05/01 06:37:24;;;;;;;14.80;9.90;;;;;;;9.71;61.61;98295.96;106752;1276;22539;-77
2023/05/01 06:39:52;;;;;;;13.30;8.40;;;;;;;9.83;60.49;98298.60;106940;1276;22797;-75
2023/05/01 06:42:21;;;;;;;11.10;8.50;;;;;;;9.89;57.98;98300.80;106701;1276;22661;-76
2023/05/01 06:44:49;;;;;;;11.50;7.20;;;;;;;9.95;58.54;98301.94;106542;1276;24258;-77
2023/05/01 06:47:17;;;;;;;12.60;7.70;;;;;;;10.02;57.20;98307.18;106470;1276;22658;-76
2023/05/01 06:49:45;;;;;;;10.40;7.80;;;;;;;10.06;57.13;98303.27;106771;1276;22636;-75
2023/05/01 06:52:13;;;;;;;8.30;7.30;;;;;;;10.15;58.30;98299.72;106479;1276;22511;-76
2023/05/01 06:54:41;;;;;;;10.00;6.70;;;;;;;10.30;58.00;98292.37;106772;1276;22532;-76
2023/05/01 06:57:09;;;;;;;8.20;6.60;;;;;;;10.40;57.00;98290.76;106420;1268;24200;-75
2023/05/01 06:59:37;;;;;;;12.30;7.10;;;;;;;10.51;56.68;98289.39;106509;1276;25359;-76
2023/05/01 07:02:05;;;;;;;9.70;6.80;;;;;;;10.60;57.48;98287.27;106731;1276;22533;-75
2023/05/01 07:04:33;;;;;;;11.90;7.40;;;;;;;10.72;56.95;98288.48;106743;1276;25302;-75
2023/05/01 07:07:02;;;;;;;8.90;6.40;;;;;;;10.80;56.98;98283.13;106564;1276;25390;-75
2023/05/01 07:09:30;;;;;;;10.40;6.50;;;;;;;10.88;55.87;98277.46;106735;1276;22521;-75
2023/05/01 07:11:58;;;;;;;9.50;6.50;;;;;;;10.91;55.73;98283.89;106792;1276;22636;-76
2023/05/01 07:14:26;;;;;;;9.90;6.90;;;;;;;10.95;54.46;98280.23;106590;1276;22524;-75
2023/05/01 07:16:54;;;;;;;11.80;5.80;;;;;;;10.98;54.33;98285.05;106753;1276;25491;-75
2023/05/01 07:19:22;;;;;;;10.30;5.50;;;;;;;11.05;52.84;98289.96;106795;1276;22530;-75
2023/05/01 07:21:50;;;;;;;8.70;5.90;;;;;;;11.13;53.14;98285.20;106750;1276;24275;-74
2023/05/01 07:24:19;;;;;;;7.80;5.00;;;;;;;11.24;53.00;98288.23;106744;1276;22524;-75
2023/05/01 07:26:47;;;;;;;7.00;4.90;;;;;;;11.31;51.63;98282.39;106718;1276;22629;-75
2023/05/01 07:29:15;;;;;;;10.10;5.70;;;;;;;11.38;50.22;98285.09;106749;1276;22627;-78
2023/05/01 07:31:44;;;;;;;8.80;5.20;;;;;;;11.47;50.19;98288.66;106710;1276;22780;-74
2023/05/01 07:34:12;;;;;;;7.70;5.30;;;;;;;11.57;50.54;98283.98;106735;1276;22626;-75
2023/05/01 07:36:40;;;;;;;9.70;5.90;;;;;;;11.65;49.85;98287.14;106789;1276;25468;-74
2023/05/01 07:39:08;;;;;;;10.50;6.10;;;;;;;11.71;50.09;98284.34;106751;1276;22519;-75
2023/05/01 07:41:37;;;;;;;7.90;5.40;;;;;;;11.80;50.27;98287.67;106822;1276;25322;-75
2023/05/01 07:44:05;;;;;;;8.30;5.20;;;;;;;11.91;50.79;98287.36;106803;1276;22524;-78
2023/05/01 07:46:33;;;;;;;9.00;5.40;;;;;;;12.01;49.71;98281.88;106770;1276;22515;-74
2023/05/01 07:49:03;;;;;;;8.40;5.90;;;;;;;12.13;49.45;98285.71;106616;1276;22617;-73
2023/05/01 07:51:31;;;;;;;10.00;5.60;;;;;;;12.20;49.08;98288.27;106750;1276;24249;-74
2023/05/01 07:54:03;;;;;;;11.70;7.20;;;;;;;12.29;49.63;98287.30;106769;1276;22731;-73
2023/05/01 07:56:31;;;;;;;8.50;5.00;;;;;;;12.40;49.36;98295.34;106780;1276;25218;-74
2023/05/01 07:58:59;;;;;;;9.60;5.30;;;;;;;12.48;49.26;98293.77;106734;1276;22538;-74
2023/05/01 08:01:27;;;;;;;8.70;5.70;;;;;;;12.53;49.23;98290.98;106749;1276;22617;-75
2023/05/01 08:03:55;;;;;;;7.90;5.80;;;;;;;12.57;48.29;98286.89;106756;1276;24663;-75
2023/05/01 08:06:23;;;;;;;12.40;5.80;;;;;;;12.62;47.83;98288.84;106741;1276;25309;-76
2023/05/01 08:08:51;;;;;;;13.20;5.40;;;;;;;12.69;48.20;98288.59;106749;1276;22532;-75
2023/05/01 08:11:19;;;;;;;7.90;5.70;;;;;;;12.73;47.47;98289.21;106872;1276;22532;-75
2023/05/01 08:13:47;;;;;;;9.80;6.50;;;;;;;12.75;47.21;98287.51;106772;1276;22536;-76
2023/05/01 08:16:15;;;;;;;10.00;5.50;;;;;;;12.76;46.35;98283.31;106758;1276;22527;-75
2023/05/01 08:18:45;;;;;;;8.80;5.70;;;;;;;12.84;47.20;98279.84;106740;1276;24252;-76
2023/05/01 08:21:13;;;;;;;8.10;5.50;;;;;;;12.97;47.10;98281.02;106872;1276;25255;-75
2023/05/01 08:23:41;;;;;;;7.60;5.90;;;;;;;13.08;46.36;98278.81;106765;1276;22634;-75
2023/05/01 08:26:09;;;;;;;8.00;5.60;;;;;;;13.13;46.49;98277.58;106897;1253;22565;-75
2023/05/01 08:28:37;;;;;;;9.00;6.10;;;;;;;13.23;46.24;98277.11;106904;1276;24052;-75
2023/05/01 08:31:05;;;;;;;10.90;5.90;;;;;;;13.32;45.56;98277.30;106722;1276;25260;-75
2023/05/01 08:33:33;;;;;;;9.40;5.60;;;;;;;13.38;44.98;98280.79;106901;1276;24369;-75
2023/05/01 08:36:00;;;;;;;11.00;5.30;;;;;;;13.44;44.32;98279.15;106907;1276;25223;-75
2023/05/01 08:38:28;;;;;;;9.30;5.30;;;;;;;13.50;44.23;98281.77;106893;1276;23008;-76
2023/05/01 08:40:58;;;;;;;9.40;5.70;;;;;;;13.58;43.94;98283.61;106960;1276;24385;-75
2023/05/01 08:43:29;;;;;;;8.70;5.30;;;;;;;13.67;44.46;98282.64;106806;1276;25385;-75
2023/05/01 08:46:04;;;;;;;8.80;5.90;;;;;;;13.82;45.03;98278.84;107055;1276;22530;-77
2023/05/01 08:48:35;;;;;;;10.30;5.10;;;;;;;13.95;44.81;98271.80;106737;1276;24062;-75
2023/05/01 08:51:04;;;;;;;9.30;5.60;;;;;;;14.02;43.67;98268.45;106989;1276;22530;-76
2023/05/01 08:53:33;;;;;;;8.60;6.00;;;;;;;14.08;43.96;98267.37;106911;1276;24368;-75
2023/05/01 08:56:06;;;;;;;10.50;5.80;;;;;;;14.19;44.17;98263.52;106889;1276;24368;-74
2023/05/01 08:58:35;;;;;;;7.70;5.00;;;;;;;14.27;43.14;98266.86;106747;1272;23922;-73
2023/05/01 09:01:05;;;;;;;11.90;5.90;;;;;;;14.35;43.25;98273.09;106774;1276;25392;-73
2023/05/01 09:03:34;;;;;;;8.60;4.90;;;;;;;14.47;42.28;98271.11;106520;1276;23461;-73
2023/05/01 09:06:03;;;;;;;6.80;4.40;;;;;;;14.53;41.99;98262.12;106745;1276;23895;-74
2023/05/01 09:08:31;;;;;;;8.60;6.40;;;;;;;14.60;42.13;98257.99;106831;1276;25271;-74
2023/05/01 09:11:00;;;;;;;8.10;4.80;;;;;;;14.68;40.94;98253.13;106848;1276;25359;-75
2023/05/01 09:13:29;;;;;;;8.00;4.20;;;;;;;14.74;41.22;98247.88;106761;1276;22531;-74
2023/05/01 09:15:59;;;;;;;9.30;5.50;;;;;;;14.85;41.08;98248.11;106808;1276;22532;-74
2023/05/01 09:18:27;;;;;;;11.10;5.90;;;;;;;14.93;40.36;98244.19;106808;1276;22637;-74
2023/05/01 09:20:56;;;;;;;9.20;5.50;;;;;;;15.02;41.92;98238.69;106728;1276;22521;-74
2023/05/01 09:23:24;;;;;;;9.40;5.30;;;;;;;15.16;41.93;98241.57;106769;1276;22527;-74
2023/05/01 09:25:52;;;;;;;8.00;5.30;;;;;;;15.26;41.41;98239.45;106723;1276;24423;-74
2023/05/01 09:28:47;;;;;;;10.10;6.10;;;;;;;15.32;41.25;98236.51;106903;1276;24368;-74
2023/05/01 09:31:27;;;;;;;9.70;5.60;;;;;;;15.43;41.13;98231.41;106886;1276;22538;-75
2023/05/01 09:34:01;;;;;;;8.10;4.90;;;;;;;15.54;41.06;98234.69;106760;1276;24176;-74
2023/05/01 09:36:31;;;;;;;9.10;5.50;;;;;;;15.69;40.93;98233.14;106769;1276;22776;-74
2023/05/01 09:39:01;;;;;;;9.20;4.60;;;;;;;15.84;40.88;98229.98;106793;1276;25348;-76
2023/05/01 09:41:31;;;;;;;8.20;4.90;;;;;;;16.00;41.05;98227.86;106815;1276;22514;-75
2023/05/01 09:44:00;;;;;;;8.80;4.90;;;;;;;16.15;41.20;98221.37;106789;1276;24223;-75
2023/05/01 09:46:40;;;;;;;7.20;4.60;;;;;;;16.27;40.74;98217.66;106845;1276;22540;-75
2023/05/01 09:49:09;;;;;;;7.90;4.20;;;;;;;16.39;40.15;98215.48;106887;1276;25692;-76
2023/05/01 09:51:37;;;;;;;8.40;4.40;;;;;;;16.44;40.16;98212.58;106862;1275;22644;-75
2023/05/01 09:54:18;;;;;;;10.60;4.20;;;;;;;16.53;39.55;98207.95;106742;1276;22741;-74
2023/05/01 09:56:47;;;;;;;7.40;4.50;;;;;;;16.55;39.10;98209.89;106745;1273;22527;-75
2023/05/01 09:59:19;;;;;;;8.90;4.40;;;;;;;16.55;38.80;98210.05;106781;1276;22561;-75
2023/05/01 10:01:48;;;;;;;6.60;4.00;;;;;;;16.58;39.18;98207.14;106712;1276;22543;-75
2023/05/01 10:04:29;;;;;;;6.60;4.20;;;;;;;16.66;39.43;98200.64;106776;1276;22570;-75
2023/05/01 10:07:10;;;;;;;7.60;4.80;;;;;;;16.75;38.66;98196.33;106738;1276;22512;-75
2023/05/01 10:09:38;;;;;;;7.00;4.50;;;;;;;16.83;38.74;98202.80;106715;1276;22525;-75
2023/05/01 10:12:06;;;;;;;8.40;4.10;;;;;;;16.90;38.31;98199.19;106740;1276;22581;-75
2023/05/01 10:14:49;;;;;;;7.40;3.90;;;;;;;16.96;38.42;98202.38;106755;1276;22637;-75
2023/05/01 10:17:20;;;;;;;7.90;4.10;;;;;;;17.02;37.99;98206.32;106764;1276;22549;-75
2023/05/01 10:19:50;;;;;;;6.70;3.80;;;;;;;17.09;38.51;98198.32;106741;1276;22579;-75
2023/05/01 10:22:18;;;;;;;7.00;3.90;;;;;;;17.20;37.74;98192.73;106772;1276;22534;-75
2023/05/01 10:24:46;;;;;;;7.20;4.60;;;;;;;17.23;37.11;98194.05;106732;1276;25486;-75
2023/05/01 10:27:16;;;;;;;6.30;4.20;;;;;;;17.27;36.92;98190.08;106903;1276;22630;-75
2023/05/01 10:29:46;;;;;;;7.20;4.20;;;;;;;17.35;37.31;98190.42;106737;1276;22631;-75
2023/05/01 10:32:14;;;;;;;6.70;4.30;;;;;;;17.50;36.83;98185.13;106827;1276;25677;-75
2023/05/01 10:34:49;;;;;;;9.70;4.30;;;;;;;17.58;36.76;98183.61;106763;1276;22988;-75
2023/05/01 10:37:23;;;;;;;8.20;4.00;;;;;;;17.60;36.84;98187.55;106791;1276;22636;-75
2023/05/01 10:39:51;;;;;;;5.30;3.80;;;;;;;17.66;35.73;98184.17;106764;1276;25461;-75
2023/05/01 10:42:19;;;;;;;7.60;4.30;;;;;;;17.66;35.63;98181.08;106748;1276;22787;-75
2023/05/01 10:44:48;;;;;;;7.10;3.80;;;;;;;17.73;35.88;98178.11;106425;1276;24447;-76
2023/05/01 10:47:30;;;;;;;8.50;3.80;;;;;;;17.77;35.53;98177.63;106823;1276;22537;-75
2023/05/01 10:50:08;;;;;;;8.50;4.00;;;;;;;17.88;34.95;98172.95;106815;1264;22623;-74
2023/05/01 10:53:11;;;;;;;5.50;3.90;;;;;;;18.06;35.08;98174.47;106622;1276;22567;-76
2023/05/01 10:55:48;;;;;;;7.40;4.40;;;;;;;18.24;35.41;98166.42;106817;1276;22755;-75
2023/05/01 10:58:42;;;;;;;8.90;4.10;;;;;;;18.36;35.56;98165.73;106736;1276;25264;-75
2023/05/01 11:01:31;;;;;;;8.20;4.40;;;;;;;18.45;35.00;98165.30;106777;1276;22781;-75
2023/05/01 11:04:03;;;;;;;8.50;3.80;;;;;;;18.55;34.27;98165.67;106825;1276;24422;-76
2023/05/01 11:06:31;;;;;;;6.80;4.10;;;;;;;18.68;34.69;98156.77;106852;1276;25395;-74
2023/05/01 11:09:01;;;;;;;7.30;4.30;;;;;;;18.78;33.21;98155.53;106897;1276;22521;-75
2023/05/01 11:11:29;;;;;;;9.30;4.60;;;;;;;18.77;33.07;98153.48;106828;1276;22782;-74
2023/05/01 11:14:09;;;;;;;8.10;4.00;;;;;;;18.78;33.34;98154.65;106844;1276;22515;-74
2023/05/01 11:16:40;;;;;;;6.50;3.90;;;;;;;18.76;33.65;98154.23;106885;1276;24683;-76
2023/05/01 11:19:21;;;;;;;9.30;6.60;;;;;;;18.82;33.45;98154.84;106827;1276;25633;-76
2023/05/01 11:21:53;;;;;;;7.00;4.90;;;;;;;18.96;34.09;98147.70;106782;1276;22633;-76
2023/05/01 11:24:31;;;;;;;7.40;4.90;;;;;;;19.16;33.56;98146.45;106746;1276;22649;-76
2023/05/01 11:26:59;;;;;;;7.70;3.80;;;;;;;19.22;32.88;98143.95;106854;1276;22706;-76
2023/05/01 11:29:34;;;;;;;7.40;3.70;;;;;;;19.24;32.07;98134.61;106789;1276;22568;-75
2023/05/01 11:32:02;;;;;;;7.80;4.10;;;;;;;19.25;32.17;98128.16;106721;1276;25233;-76
2023/05/01 11:34:36;;;;;;;7.70;4.60;;;;;;;19.34;32.02;98130.11;106747;1262;22521;-75
2023/05/01 11:37:04;;;;;;;9.40;4.50;;;;;;;19.38;32.54;98126.64;106726;1276;25256;-75
2023/05/01 11:39:33;;;;;;;8.50;3.90;;;;;;;19.48;32.55;98124.41;106481;1276;24224;-75